Dk Ione — 3ETX — position and weather

sailwx.info

Track history (hours):
 
Tides and Currents Weather Stations Pressure Air Temp Water Temp Dewpoint Dewpoint Depression Visibility Wind Speed Wind Dir Waves Ship Positions

Dk Ione

Last reported at 2016-Feb-09 13:10 UTC. Time now 2016-Feb-09 13:52 UTC.
Position N 31°60' E 120°47'.

Length 196 m; draft 10.2 m.

Type: Cargo ship. MMSI: 353245000.

Date/timePositionNaut miles runAvg speedWind from/ knotsBaromVisibWave heightAir tempDewpointWater temp
2016-Feb-09 13:10N 31°60' E 120°47'0 0.0
2016-Feb-09 12:31N 31°60' E 120°47'0 0.0
2016-Feb-09 07:13N 31°60' E 120°47'0 0.0
2016-Feb-07 10:19N 31°60' E 120°47'0 0.0
2016-Feb-07 03:07N 31°60' E 120°47'0 0.0
2016-Feb-07 00:31N 31°60' E 120°47'0 0.0
2016-Feb-06 11:13N 31°60' E 120°47'0 0.0
2016-Feb-06 02:07N 31°60' E 120°47'0 0.0
2016-Feb-06 01:19N 31°60' E 120°47'0 0.0
2016-Feb-06 00:25N 31°60' E 120°47'0 0.0
2016-Feb-05 18:12N 31°60' E 120°47'0 0.0
2016-Feb-05 09:31N 31°60' E 120°47'0 0.0
2016-Feb-05 07:06N 31°60' E 120°47'0 0.0
2016-Feb-05 06:30N 31°60' E 120°47'0 0.2
2016-Feb-05 05:13N 31°60' E 120°47'0 0.1
2016-Feb-05 03:27N 31°60' E 120°47'6 6.6
2016-Feb-05 02:32N 31°56' E 120°52'2 1.9
2016-Feb-05 01:32N 31°54' E 120°54'0 0.0
2016-Feb-05 00:26N 31°54' E 120°54'0 0.0
2016-Feb-04 22:05N 31°54' E 120°54'0 0.0
2016-Feb-04 20:08N 31°54' E 120°54'0 0.0
2016-Feb-04 19:32N 31°54' E 120°54'0 0.0
2016-Feb-04 18:32N 31°54' E 120°54'0 0.0
2016-Feb-04 15:29N 31°54' E 120°54'0 0.0
2016-Feb-04 14:20N 31°54' E 120°54'0 0.0
2016-Feb-04 08:19N 31°54' E 120°54'4 1.3
2016-Feb-04 05:32N 31°51' E 120°54'2712.7
2016-Feb-04 03:22N 31°34' E 121°19'1011.7
2016-Feb-04 02:33N 31°27' E 121°28'9 9.0
2016-Feb-04 01:33N 31°22' E 121°37'1310.7
2016-Feb-04 00:23N 31°17' E 121°50'382 8.7
2016-Feb-02 04:20N 37°37' E 122°35'1013.1
2016-Feb-02 03:33N 37°33' E 122°23'1010.0
2016-Feb-02 02:32N 37°28' E 122°12'1 0.7
2016-Feb-02 01:30N 37°27' E 122°12'0 0.0
2016-Feb-02 00:18N 37°27' E 122°12'0 0.0
2016-Feb-01 23:30N 37°27' E 122°12'0 0.0
2016-Feb-01 22:30N 37°27' E 122°12'0 0.0
2016-Feb-01 21:30N 37°27' E 122°12'0 0.0
2016-Feb-01 20:30N 37°27' E 122°12'0 0.0
2016-Feb-01 19:06N 37°27' E 122°12'0 0.0
2016-Feb-01 18:24N 37°27' E 122°12'0 0.0
2016-Feb-01 16:24N 37°27' E 122°12'0 0.0
2016-Feb-01 15:24N 37°27' E 122°12'0 0.0
2016-Feb-01 14:30N 37°27' E 122°12'0 0.0
2016-Feb-01 13:30N 37°27' E 122°12'0 0.0
2016-Feb-01 10:30N 37°27' E 122°12'0 0.0
2016-Feb-01 09:30N 37°27' E 122°12'0 0.0
2016-Feb-01 08:30N 37°27' E 122°12'0 0.0
2016-Feb-01 07:30N 37°27' E 122°12'0 0.0
2016-Feb-01 06:30N 37°27' E 122°12'0 0.0
2016-Feb-01 05:30N 37°27' E 122°12'0 0.0
2016-Feb-01 04:30N 37°27' E 122°12'0 0.0
2016-Feb-01 03:30N 37°27' E 122°12'0 0.0
2016-Feb-01 02:30N 37°27' E 122°12'0 0.0
2016-Feb-01 01:30N 37°27' E 122°12'0 0.0
2016-Feb-01 00:18N 37°27' E 122°12'0 0.0
2016-Jan-31 23:30N 37°27' E 122°12'0 0.0
2016-Jan-31 22:30N 37°27' E 122°12'0 0.0
2016-Jan-31 21:30N 37°27' E 122°12'0 0.0
2016-Jan-31 20:30N 37°27' E 122°12'0 0.0
2016-Jan-31 19:30N 37°27' E 122°12'0 0.0
2016-Jan-31 18:30N 37°27' E 122°12'0 0.0
2016-Jan-31 17:30N 37°27' E 122°12'0 0.0
2016-Jan-31 16:30N 37°27' E 122°12'0 0.0
2016-Jan-31 15:30N 37°27' E 122°12'0 0.0
2016-Jan-31 14:30N 37°27' E 122°12'0 0.0
2016-Jan-31 13:30N 37°27' E 122°12'0 0.0
2016-Jan-31 12:30N 37°27' E 122°12'0 0.0
2016-Jan-31 11:12N 37°27' E 122°12'0 0.0
2016-Jan-31 10:30N 37°27' E 122°12'0 0.0
2016-Jan-31 09:30N 37°27' E 122°12'0 0.0
2016-Jan-31 08:30N 37°27' E 122°12'0 0.0
2016-Jan-31 07:30N 37°27' E 122°12'0 0.0
2016-Jan-31 06:24N 37°27' E 122°12'0 0.0
2016-Jan-31 05:24N 37°27' E 122°12'0 0.0
2016-Jan-31 04:30N 37°27' E 122°12'0 0.0
2016-Jan-31 03:30N 37°27' E 122°12'0 0.0
2016-Jan-31 02:30N 37°27' E 122°12'0 0.0
2016-Jan-31 01:30N 37°27' E 122°12'0 0.0
2016-Jan-31 00:30N 37°27' E 122°12'0 0.0
2016-Jan-30 23:06N 37°27' E 122°12'0 0.0
2016-Jan-30 21:30N 37°27' E 122°12'0 0.0
2016-Jan-30 20:30N 37°27' E 122°12'0 0.0
2016-Jan-30 19:24N 37°27' E 122°12'0 0.0
2016-Jan-30 18:24N 37°27' E 122°12'0 0.0
2016-Jan-30 17:30N 37°27' E 122°12'0 0.0
2016-Jan-30 16:30N 37°27' E 122°12'0 0.0
2016-Jan-30 15:30N 37°27' E 122°12'0 0.0
2016-Jan-30 14:30N 37°27' E 122°12'0 0.0
2016-Jan-30 13:30N 37°27' E 122°12'  
Track history (hours):
 
Tides and Currents Weather Stations Pressure Air Temp Water Temp Dewpoint Dewpoint Depression Visibility Wind Speed Wind Dir Waves Ship Positions

Dk Ione

Last reported at 2016-Feb-09 13:10 UTC. Time now 2016-Feb-09 13:52 UTC.
Position N 31°60' E 120°47'.

Length 196 m; draft 10.2 m.

Type: Cargo ship. MMSI: 353245000.

Date/timePositionNaut miles runAvg speedWind from/ knotsBaromVisibWave heightAir tempDewpointWater temp
2016-Feb-09 13:10N 31°60' E 120°47'0 0.0
2016-Feb-09 12:31N 31°60' E 120°47'0 0.0
2016-Feb-09 07:13N 31°60' E 120°47'0 0.0
2016-Feb-07 10:19N 31°60' E 120°47'0 0.0
2016-Feb-07 03:07N 31°60' E 120°47'0 0.0
2016-Feb-07 00:31N 31°60' E 120°47'0 0.0
2016-Feb-06 11:13N 31°60' E 120°47'0 0.0
2016-Feb-06 02:07N 31°60' E 120°47'0 0.0
2016-Feb-06 01:19N 31°60' E 120°47'0 0.0
2016-Feb-06 00:25N 31°60' E 120°47'0 0.0
2016-Feb-05 18:12N 31°60' E 120°47'0 0.0
2016-Feb-05 09:31N 31°60' E 120°47'0 0.0
2016-Feb-05 07:06N 31°60' E 120°47'0 0.0
2016-Feb-05 06:30N 31°60' E 120°47'0 0.2
2016-Feb-05 05:13N 31°60' E 120°47'0 0.1
2016-Feb-05 03:27N 31°60' E 120°47'6 6.6
2016-Feb-05 02:32N 31°56' E 120°52'2 1.9
2016-Feb-05 01:32N 31°54' E 120°54'0 0.0
2016-Feb-05 00:26N 31°54' E 120°54'0 0.0
2016-Feb-04 22:05N 31°54' E 120°54'0 0.0
2016-Feb-04 20:08N 31°54' E 120°54'0 0.0
2016-Feb-04 19:32N 31°54' E 120°54'0 0.0
2016-Feb-04 18:32N 31°54' E 120°54'0 0.0
2016-Feb-04 15:29N 31°54' E 120°54'0 0.0
2016-Feb-04 14:20N 31°54' E 120°54'0 0.0
2016-Feb-04 08:19N 31°54' E 120°54'4 1.3
2016-Feb-04 05:32N 31°51' E 120°54'2712.7
2016-Feb-04 03:22N 31°34' E 121°19'1011.7
2016-Feb-04 02:33N 31°27' E 121°28'9 9.0
2016-Feb-04 01:33N 31°22' E 121°37'1310.7
2016-Feb-04 00:23N 31°17' E 121°50'382 8.7
2016-Feb-02 04:20N 37°37' E 122°35'1013.1
2016-Feb-02 03:33N 37°33' E 122°23'1010.0
2016-Feb-02 02:32N 37°28' E 122°12'1 0.7
2016-Feb-02 01:30N 37°27' E 122°12'0 0.0
2016-Feb-02 00:18N 37°27' E 122°12'0 0.0
2016-Feb-01 23:30N 37°27' E 122°12'0 0.0
2016-Feb-01 22:30N 37°27' E 122°12'0 0.0
2016-Feb-01 21:30N 37°27' E 122°12'0 0.0
2016-Feb-01 20:30N 37°27' E 122°12'0 0.0
2016-Feb-01 19:06N 37°27' E 122°12'0 0.0
2016-Feb-01 18:24N 37°27' E 122°12'0 0.0
2016-Feb-01 16:24N 37°27' E 122°12'0 0.0
2016-Feb-01 15:24N 37°27' E 122°12'0 0.0
2016-Feb-01 14:30N 37°27' E 122°12'0 0.0
2016-Feb-01 13:30N 37°27' E 122°12'0 0.0
2016-Feb-01 10:30N 37°27' E 122°12'0 0.0
2016-Feb-01 09:30N 37°27' E 122°12'0 0.0
2016-Feb-01 08:30N 37°27' E 122°12'0 0.0
2016-Feb-01 07:30N 37°27' E 122°12'0 0.0
2016-Feb-01 06:30N 37°27' E 122°12'0 0.0
2016-Feb-01 05:30N 37°27' E 122°12'0 0.0
2016-Feb-01 04:30N 37°27' E 122°12'0 0.0
2016-Feb-01 03:30N 37°27' E 122°12'0 0.0
2016-Feb-01 02:30N 37°27' E 122°12'0 0.0
2016-Feb-01 01:30N 37°27' E 122°12'0 0.0
2016-Feb-01 00:18N 37°27' E 122°12'0 0.0
2016-Jan-31 23:30N 37°27' E 122°12'0 0.0
2016-Jan-31 22:30N 37°27' E 122°12'0 0.0
2016-Jan-31 21:30N 37°27' E 122°12'0 0.0
2016-Jan-31 20:30N 37°27' E 122°12'0 0.0
2016-Jan-31 19:30N 37°27' E 122°12'0 0.0
2016-Jan-31 18:30N 37°27' E 122°12'0 0.0
2016-Jan-31 17:30N 37°27' E 122°12'0 0.0
2016-Jan-31 16:30N 37°27' E 122°12'0 0.0
2016-Jan-31 15:30N 37°27' E 122°12'0 0.0
2016-Jan-31 14:30N 37°27' E 122°12'0 0.0
2016-Jan-31 13:30N 37°27' E 122°12'0 0.0
2016-Jan-31 12:30N 37°27' E 122°12'0 0.0
2016-Jan-31 11:12N 37°27' E 122°12'0 0.0
2016-Jan-31 10:30N 37°27' E 122°12'0 0.0
2016-Jan-31 09:30N 37°27' E 122°12'0 0.0
2016-Jan-31 08:30N 37°27' E 122°12'0 0.0
2016-Jan-31 07:30N 37°27' E 122°12'0 0.0
2016-Jan-31 06:24N 37°27' E 122°12'0 0.0
2016-Jan-31 05:24N 37°27' E 122°12'0 0.0
2016-Jan-31 04:30N 37°27' E 122°12'0 0.0
2016-Jan-31 03:30N 37°27' E 122°12'0 0.0
2016-Jan-31 02:30N 37°27' E 122°12'0 0.0
2016-Jan-31 01:30N 37°27' E 122°12'0 0.0
2016-Jan-31 00:30N 37°27' E 122°12'0 0.0
2016-Jan-30 23:06N 37°27' E 122°12'0 0.0
2016-Jan-30 21:30N 37°27' E 122°12'0 0.0
2016-Jan-30 20:30N 37°27' E 122°12'0 0.0
2016-Jan-30 19:24N 37°27' E 122°12'0 0.0
2016-Jan-30 18:24N 37°27' E 122°12'0 0.0
2016-Jan-30 17:30N 37°27' E 122°12'0 0.0
2016-Jan-30 16:30N 37°27' E 122°12'0 0.0
2016-Jan-30 15:30N 37°27' E 122°12'0 0.0
2016-Jan-30 14:30N 37°27' E 122°12'0 0.0
2016-Jan-30 13:30N 37°27' E 122°12'  

Dump ship's entire track history